Monarch Pass, CO

3:50 PM MDT on May 25, 2017 (GMT -0600)
Monarch Pass | | Change Station

Elev 12031 ft 38.29 °N, 106.19 °W | Updated 17 minutes ago

Overcast
Overcast
43 °F
Feels Like 33 °F
N
28
Wind Variable Wind from WNW
Gusts 59 mph

Today
High -- | Low -- °F
--% Chance of Precip.
Yesterday
High -- | Low -- °F
Precip. -- in
Pressure 30.15 in
Visibility 10.0 miles
Clouds Scattered Clouds 3600 ft
Mostly Cloudy 6500 ft
Overcast 8500 ft
Windchill 33 °F
Dew Point 19 °F
Humidity 39%
Rainfall 0.00 in
Snow Depth Not available.
5:46 AM 8:17 PM
New Moon, 0% visible
METAR KMYP 252133Z AUTO 29024G51KT 10SM SCT036 BKN065 OVC085 06/M07 A3015 RMK AO2 LTG DSNT NW
Pressure 30.15 in
Visibility 10.0 miles
Clouds Scattered Clouds 3600 ft
Mostly Cloudy 6500 ft
Overcast 8500 ft
Windchill 33 °F
Dew Point 19 °F
Humidity 39%
Rainfall 0.00 in
Snow Depth Not available.
5:46 AM 8:17 PM
New Moon, 0% visible
METAR KMYP 252133Z AUTO 29024G51KT 10SM SCT036 BKN065 OVC085 06/M07 A3015 RMK AO2 LTG DSNT NW

Get Severe Weather Alerts

Thanks for signing up!

Be on the lookout for a verification email in your inbox.

You'll start receiving the daily forecast at 6 AM.

×

10-Day Weather Forecast

Almanac

Astronomy

May. 25, 2017 Rise Set
Actual Time
Civil Twilight
Nautical Twilight
Astronomical Twilight
Moon
Length of Visible Light
Length of Day
Tomorrow will be .
, % of the Moon is Illuminated

Today's Extremes

State Highs State Lows

Community

WunderPhotos

Category 6

Welcome to Category 6. This is the collective home for Weather Underground's featured writeups by Dr. Jeff Masters (right), Bob Henson (left), Chris Burt, and other regular contributors.

Nearby

Air Quality

  Air Quality AQ Index Pollutant
Not available.

Snow Depth

Station Depth Elevation

Earthquake Activity

City Distance Mag. Time & Date
Minimum magnitude displayed is 2.5.

Coastal Water Temperatures

Place Temperature

Stations

Nearby Weather Stations

Station Location Temp. Windchill Dew Point Humidity Wind Precip. Elev Updated Type
                   

Watches & Warnings

There are currently no watches in effect.